createdAt,value
2022-09-23T00:00:44.829Z,9.75
2022-09-23T00:01:47.965Z,9.83
2022-09-23T00:02:52.058Z,9.81
2022-09-23T00:03:56.408Z,9.81
2022-09-23T00:04:58.903Z,9.82
2022-09-23T00:06:03.440Z,9.82
2022-09-23T00:07:05.503Z,9.79
2022-09-23T00:08:13.266Z,9.82
2022-09-23T00:09:15.357Z,9.81
2022-09-23T00:10:19.447Z,9.83
2022-09-23T00:11:22.796Z,9.81
2022-09-23T00:12:26.013Z,9.81
2022-09-23T00:13:28.151Z,9.81
2022-09-23T00:14:31.193Z,9.81
2022-09-23T00:15:38.678Z,9.81
2022-09-23T00:16:41.788Z,9.80
2022-09-23T00:17:44.420Z,9.76
2022-09-23T00:18:49.445Z,9.79
2022-09-23T00:19:52.453Z,9.79
2022-09-23T00:20:54.477Z,9.79
2022-09-23T00:21:57.516Z,9.79
2022-09-23T00:22:59.551Z,9.79
2022-09-23T00:24:04.271Z,9.70
2022-09-23T00:25:08.304Z,9.79
2022-09-23T00:26:13.386Z,9.78
2022-09-23T00:27:15.494Z,9.78
2022-09-23T00:28:18.532Z,9.78
2022-09-23T00:29:20.765Z,9.78
2022-09-23T00:30:24.056Z,9.78
2022-09-23T00:31:27.503Z,9.77
2022-09-23T00:32:30.628Z,9.77
2022-09-23T00:33:32.861Z,9.75
2022-09-23T00:34:35.934Z,9.77
2022-09-23T00:35:38.732Z,9.74
2022-09-23T00:36:41.812Z,9.74
2022-09-23T00:37:43.929Z,9.73
2022-09-23T00:38:47.248Z,9.73
2022-09-23T00:39:55.478Z,9.72
2022-09-23T00:40:59.372Z,9.71
2022-09-23T00:42:02.593Z,9.71
2022-09-23T00:43:05.980Z,9.70
2022-09-23T00:44:46.552Z,9.68
2022-09-23T00:45:50.604Z,9.69
2022-09-23T00:46:53.743Z,9.67
2022-09-23T00:48:01.437Z,9.67
2022-09-23T00:49:08.281Z,9.66
2022-09-23T00:50:18.688Z,9.65
2022-09-23T00:51:25.898Z,9.64
2022-09-23T00:52:28.415Z,9.63
2022-09-23T00:53:31.672Z,9.62
2022-09-23T00:54:34.037Z,9.63
2022-09-23T00:55:43.083Z,9.62
2022-09-23T00:56:45.328Z,9.62
2022-09-23T00:57:48.826Z,9.61
2022-09-23T00:58:51.538Z,9.61
2022-09-23T00:59:55.025Z,9.61
2022-09-23T01:01:00.139Z,9.61
2022-09-23T01:02:04.715Z,9.62
2022-09-23T01:03:07.508Z,9.62
2022-09-23T01:04:10.612Z,9.62
2022-09-23T01:05:13.719Z,9.63
2022-09-23T01:06:16.854Z,9.65
2022-09-23T01:07:19.098Z,9.63
2022-09-23T01:08:23.991Z,9.65
2022-09-23T01:09:26.503Z,9.65
2022-09-23T01:10:40.177Z,9.66
2022-09-23T01:11:52.478Z,9.66
2022-09-23T01:13:07.838Z,9.68
2022-09-23T01:14:24.182Z,9.68
2022-09-23T01:15:35.064Z,9.65
2022-09-23T01:16:43.127Z,9.69
2022-09-23T01:17:53.134Z,9.69
2022-09-23T01:19:02.684Z,9.68
2022-09-23T01:20:34.759Z,9.68
2022-09-23T01:21:47.889Z,9.66
2022-09-23T01:22:58.161Z,9.69
2022-09-23T01:24:30.944Z,9.70
2022-09-23T01:25:55.257Z,9.70
2022-09-23T01:27:11.276Z,9.69
2022-09-23T01:28:36.416Z,9.69
2022-09-23T01:30:04.907Z,9.69
2022-09-23T01:31:14.393Z,9.69
2022-09-23T01:32:31.212Z,9.69
2022-09-23T01:33:42.666Z,9.69
2022-09-23T01:34:50.948Z,9.69
2022-09-23T01:36:07.530Z,9.68
2022-09-23T01:37:15.655Z,9.64
2022-09-23T01:38:28.629Z,9.67
2022-09-23T01:39:38.137Z,9.67
2022-09-23T01:40:50.249Z,9.66
2022-09-23T01:42:01.564Z,9.65
2022-09-23T01:43:08.521Z,9.64
2022-09-23T01:44:16.447Z,9.65
2022-09-23T01:45:26.094Z,9.63
2022-09-23T01:46:36.646Z,9.63
2022-09-23T01:47:42.182Z,9.62
2022-09-23T01:48:51.163Z,9.61
2022-09-23T01:49:58.564Z,9.62
2022-09-23T01:51:06.165Z,9.62
2022-09-23T01:52:16.222Z,9.61
2022-09-23T01:53:24.062Z,9.61
2022-09-23T01:54:32.390Z,9.60
2022-09-23T01:55:38.699Z,9.60
2022-09-23T01:56:47.172Z,9.57
2022-09-23T01:57:55.687Z,9.57
2022-09-23T01:59:06.697Z,9.54
2022-09-23T02:00:13.667Z,9.56
2022-09-23T02:01:23.645Z,9.55
2022-09-23T02:02:31.142Z,9.55
2022-09-23T02:03:38.659Z,9.54
2022-09-23T02:04:45.696Z,9.54
2022-09-23T02:05:52.921Z,9.54
2022-09-23T02:07:01.179Z,9.55
2022-09-23T02:08:09.106Z,9.53
2022-09-23T02:09:16.346Z,9.53
2022-09-23T02:10:24.439Z,9.52
2022-09-23T02:11:27.740Z,9.52
2022-09-23T02:12:34.514Z,9.51
2022-09-23T02:13:44.163Z,9.52
2022-09-23T02:14:51.108Z,9.51
2022-09-23T02:15:58.956Z,9.50
2022-09-23T02:17:08.793Z,9.52
2022-09-23T02:18:17.912Z,9.51
2022-09-23T02:19:27.253Z,9.51
2022-09-23T02:20:33.739Z,9.50
2022-09-23T02:21:38.465Z,9.47
2022-09-23T02:22:46.723Z,9.48
2022-09-23T02:23:52.371Z,9.48
2022-09-23T02:24:57.409Z,9.47
2022-09-23T02:26:07.490Z,9.47
2022-09-23T02:27:19.762Z,9.46
2022-09-23T02:28:31.104Z,9.46
2022-09-23T02:29:44.091Z,9.47
2022-09-23T02:30:52.840Z,9.46
2022-09-23T02:32:00.539Z,9.45
2022-09-23T02:33:07.166Z,9.45
2022-09-23T02:34:21.974Z,9.47
2022-09-23T02:35:33.223Z,9.45
2022-09-23T02:36:46.092Z,9.46
2022-09-23T02:37:53.405Z,9.46
2022-09-23T02:39:00.266Z,9.45
2022-09-23T02:40:10.609Z,9.47
2022-09-23T02:41:19.119Z,9.46
2022-09-23T02:42:24.979Z,9.47
2022-09-23T02:43:35.504Z,9.46
2022-09-23T02:44:37.810Z,9.47
2022-09-23T02:45:40.937Z,9.46
2022-09-23T02:46:43.689Z,9.45
2022-09-23T02:47:52.536Z,9.46
2022-09-23T02:49:00.964Z,9.44
2022-09-23T02:50:06.017Z,9.45
2022-09-23T02:51:08.634Z,9.44
2022-09-23T02:52:13.746Z,9.44
2022-09-23T02:53:16.251Z,9.44
2022-09-23T02:54:21.788Z,9.44
2022-09-23T02:55:27.513Z,9.45
2022-09-23T02:56:30.606Z,9.45
2022-09-23T02:57:32.955Z,9.44
2022-09-23T02:58:36.034Z,9.44
2022-09-23T02:59:39.016Z,9.44
2022-09-23T03:00:54.018Z,9.44
2022-09-23T03:02:13.682Z,9.44
2022-09-23T03:03:35.068Z,9.44
2022-09-23T03:04:47.291Z,9.44
2022-09-23T03:05:57.475Z,9.43
2022-09-23T03:07:06.277Z,9.42
2022-09-23T03:08:25.724Z,9.43
2022-09-23T03:09:33.540Z,9.42
2022-09-23T03:10:50.013Z,9.42
2022-09-23T03:12:00.845Z,9.43
2022-09-23T03:13:14.106Z,9.42
2022-09-23T03:14:29.151Z,9.41
2022-09-23T03:15:39.075Z,9.41
2022-09-23T03:16:46.417Z,9.40
2022-09-23T03:17:59.001Z,9.40
2022-09-23T03:19:13.531Z,9.40
2022-09-23T03:20:25.620Z,9.40
2022-09-23T03:21:34.494Z,9.40
2022-09-23T03:22:43.683Z,9.40
2022-09-23T03:23:48.109Z,9.40
2022-09-23T03:24:54.127Z,9.40
2022-09-23T03:26:01.469Z,9.40
2022-09-23T03:27:13.495Z,9.40
2022-09-23T03:28:18.541Z,9.39
2022-09-23T03:29:23.885Z,9.38
2022-09-23T03:30:26.514Z,9.39
2022-09-23T03:31:30.164Z,9.39
2022-09-23T03:32:34.413Z,9.39
2022-09-23T03:33:42.573Z,9.39
2022-09-23T03:34:48.446Z,9.37
2022-09-23T03:36:13.612Z,9.36
2022-09-23T03:37:24.541Z,9.38
2022-09-23T03:38:34.427Z,9.37
2022-09-23T03:39:42.671Z,9.37
2022-09-23T03:40:47.867Z,9.35
2022-09-23T03:41:53.933Z,9.36
2022-09-23T03:42:57.495Z,9.35
2022-09-23T03:44:01.447Z,9.35
2022-09-23T03:45:09.350Z,9.34
2022-09-23T03:46:13.149Z,9.34
2022-09-23T03:47:18.590Z,9.34
2022-09-23T03:48:22.303Z,9.34
2022-09-23T03:49:28.349Z,9.33
2022-09-23T03:50:30.538Z,9.33
2022-09-23T03:51:33.579Z,9.33
2022-09-23T03:52:39.765Z,9.32
2022-09-23T03:53:42.396Z,9.32
2022-09-23T03:54:45.856Z,9.34
2022-09-23T03:55:48.370Z,9.33
2022-09-23T03:56:52.013Z,9.32
2022-09-23T03:57:55.616Z,9.31
2022-09-23T03:58:58.714Z,9.31
2022-09-23T04:00:00.748Z,9.30
2022-09-23T04:01:04.107Z,9.31
2022-09-23T04:02:07.814Z,9.29
2022-09-23T04:03:11.947Z,9.30
2022-09-23T04:04:14.139Z,9.29
2022-09-23T04:05:17.969Z,9.28
2022-09-23T04:06:20.139Z,9.28
2022-09-23T04:07:23.245Z,9.27
2022-09-23T04:08:27.351Z,9.27
2022-09-23T04:09:30.547Z,9.27
2022-09-23T04:10:32.627Z,9.26
2022-09-23T04:11:36.186Z,9.24
2022-09-23T04:12:38.528Z,9.23
2022-09-23T04:13:41.643Z,9.25
2022-09-23T04:14:44.781Z,9.23
2022-09-23T04:15:51.838Z,9.23
2022-09-23T04:16:55.403Z,9.22
2022-09-23T04:17:57.438Z,9.22
2022-09-23T04:19:00.594Z,9.20
2022-09-23T04:20:02.647Z,9.20
2022-09-23T04:21:05.790Z,9.20
2022-09-23T04:22:08.561Z,9.18
2022-09-23T04:23:11.570Z,9.19
2022-09-23T04:24:16.519Z,9.18
2022-09-23T04:25:19.636Z,9.18
2022-09-23T04:26:21.716Z,9.18
2022-09-23T04:27:24.745Z,9.17
2022-09-23T04:28:26.794Z,9.16
2022-09-23T04:29:29.829Z,9.16
2022-09-23T04:30:31.862Z,9.16
2022-09-23T04:31:35.691Z,9.15
2022-09-23T04:32:37.902Z,9.14
2022-09-23T04:33:41.003Z,9.13
2022-09-23T04:34:43.084Z,9.13
2022-09-23T04:35:50.534Z,9.12
2022-09-23T04:36:52.589Z,9.11
2022-09-23T04:37:55.631Z,9.12
2022-09-23T04:38:57.767Z,9.10
2022-09-23T04:40:03.459Z,9.07
2022-09-23T04:41:09.530Z,9.11
2022-09-23T04:42:12.600Z,9.13
2022-09-23T04:43:15.914Z,9.13
2022-09-23T04:44:20.373Z,9.13
2022-09-23T04:45:22.775Z,9.14
2022-09-23T04:46:25.998Z,9.14
2022-09-23T04:47:28.294Z,9.15
2022-09-23T04:48:31.796Z,9.15
2022-09-23T04:49:33.943Z,9.18
2022-09-23T04:50:37.719Z,9.18
2022-09-23T04:51:43.331Z,9.20
2022-09-23T04:52:46.505Z,9.18
2022-09-23T04:53:50.747Z,9.20
2022-09-23T04:54:53.965Z,9.22
2022-09-23T04:56:02.237Z,9.21
2022-09-23T04:57:05.571Z,9.24
2022-09-23T04:58:09.159Z,9.24
2022-09-23T04:59:12.178Z,9.25
2022-09-23T05:00:15.336Z,9.26
2022-09-23T05:01:20.523Z,9.21
2022-09-23T05:02:22.763Z,9.26
2022-09-23T05:03:26.157Z,9.27
2022-09-23T05:04:28.437Z,9.28
2022-09-23T05:05:32.013Z,9.29
2022-09-23T05:06:35.199Z,9.29
2022-09-23T05:07:38.261Z,9.30
2022-09-23T05:08:42.055Z,9.31
2022-09-23T05:09:44.141Z,9.28
2022-09-23T05:10:47.242Z,9.31
2022-09-23T05:11:51.703Z,9.31
2022-09-23T05:12:57.249Z,9.32
2022-09-23T05:14:00.808Z,9.32
2022-09-23T05:15:02.952Z,9.29
2022-09-23T05:16:08.196Z,9.31
2022-09-23T05:17:10.600Z,9.32
2022-09-23T05:18:16.019Z,9.32
2022-09-23T05:19:22.287Z,9.33
2022-09-23T05:20:24.432Z,9.32
2022-09-23T05:21:29.157Z,9.34
2022-09-23T05:22:31.465Z,9.33
2022-09-23T05:23:35.132Z,9.34
2022-09-23T05:24:38.254Z,9.35
2022-09-23T05:25:42.563Z,9.35
2022-09-23T05:26:45.724Z,9.35
2022-09-23T05:27:49.185Z,9.36
2022-09-23T05:28:52.587Z,9.36
2022-09-23T05:29:54.778Z,9.37
2022-09-23T05:31:03.568Z,9.38
2022-09-23T05:32:05.799Z,9.40
2022-09-23T05:33:08.857Z,9.41
2022-09-23T05:34:10.892Z,9.42
2022-09-23T05:35:13.908Z,9.43
2022-09-23T05:36:17.899Z,9.45
2022-09-23T05:37:20.926Z,9.48
2022-09-23T05:38:22.990Z,9.48
2022-09-23T05:39:26.535Z,9.49
2022-09-23T05:40:28.763Z,9.51
2022-09-23T05:41:32.040Z,9.52
2022-09-23T05:42:34.231Z,9.54
2022-09-23T05:43:39.110Z,9.55
2022-09-23T05:44:42.154Z,9.56
2022-09-23T05:45:45.208Z,9.58
2022-09-23T05:46:47.423Z,9.60
2022-09-23T05:47:50.615Z,9.61
2022-09-23T05:48:52.729Z,9.61
2022-09-23T05:50:00.107Z,9.63
2022-09-23T05:51:04.056Z,9.64
2022-09-23T05:52:07.135Z,9.65
2022-09-23T05:53:09.269Z,9.67
2022-09-23T05:54:12.389Z,9.68
2022-09-23T05:55:14.920Z,9.69
2022-09-23T05:56:21.292Z,9.70
2022-09-23T05:57:24.520Z,9.70
2022-09-23T05:58:27.759Z,9.73
2022-09-23T05:59:32.147Z,9.73
2022-09-23T06:00:34.260Z,9.76
2022-09-23T06:01:38.625Z,9.77
2022-09-23T06:02:41.008Z,9.78
2022-09-23T06:03:46.943Z,9.80
2022-09-23T06:04:49.954Z,9.80
2022-09-23T06:05:53.184Z,9.77
2022-09-23T06:07:02.785Z,9.82
2022-09-23T06:08:05.637Z,9.84
2022-09-23T06:09:11.398Z,9.85
2022-09-23T06:10:13.566Z,9.86
2022-09-23T06:11:19.153Z,9.87
2022-09-23T06:12:22.584Z,9.87
2022-09-23T06:13:26.018Z,9.89
2022-09-23T06:14:29.151Z,9.89
2022-09-23T06:15:32.958Z,9.89
2022-09-23T06:16:36.712Z,9.89
2022-09-23T06:17:39.797Z,9.89
2022-09-23T06:18:43.723Z,9.89
2022-09-23T06:19:46.821Z,9.91
2022-09-23T06:20:48.827Z,9.90
2022-09-23T06:21:51.909Z,9.91
2022-09-23T06:22:55.588Z,9.91
2022-09-23T06:24:00.172Z,9.91
2022-09-23T06:25:02.215Z,9.91
2022-09-23T06:26:07.346Z,9.93
2022-09-23T06:27:09.790Z,9.93
2022-09-23T06:28:13.216Z,9.93
2022-09-23T06:29:16.227Z,9.92
2022-09-23T06:30:18.246Z,9.92
2022-09-23T06:31:22.706Z,9.90
2022-09-23T06:32:25.907Z,9.92
2022-09-23T06:33:36.107Z,9.92
2022-09-23T06:34:50.959Z,9.92
2022-09-23T06:35:59.951Z,9.92
2022-09-23T06:37:12.442Z,9.90
2022-09-23T06:38:19.034Z,9.91
2022-09-23T06:39:22.263Z,9.91
2022-09-23T06:40:24.337Z,9.91
2022-09-23T06:41:27.376Z,9.91
2022-09-23T06:42:34.215Z,9.92
2022-09-23T06:43:36.359Z,9.92
2022-09-23T06:44:39.540Z,9.93
2022-09-23T06:45:41.606Z,9.93
2022-09-23T06:46:46.017Z,9.92
2022-09-23T06:47:51.161Z,9.93
2022-09-23T06:48:54.185Z,9.93
2022-09-23T06:49:56.181Z,9.93
2022-09-23T06:51:02.508Z,9.93
2022-09-23T06:52:06.207Z,9.94
2022-09-23T06:53:08.253Z,9.94
2022-09-23T06:54:11.435Z,9.94
2022-09-23T06:55:13.608Z,9.95
2022-09-23T06:56:19.896Z,9.94
2022-09-23T06:57:23.130Z,9.95
2022-09-23T06:58:26.854Z,9.96
2022-09-23T06:59:29.844Z,9.96
2022-09-23T07:00:31.885Z,9.99
2022-09-23T07:01:35.071Z,10.01
2022-09-23T07:02:41.772Z,10.01
2022-09-23T07:03:46.123Z,10.03
2022-09-23T07:04:49.135Z,10.05
2022-09-23T07:05:54.677Z,10.08
2022-09-23T07:06:57.926Z,10.09
2022-09-23T07:08:00.290Z,10.12
2022-09-23T07:09:03.379Z,10.16
2022-09-23T07:10:07.134Z,10.18
2022-09-23T07:11:13.454Z,10.20
2022-09-23T07:12:15.713Z,10.24
2022-09-23T07:13:18.777Z,10.27
2022-09-23T07:14:21.002Z,10.32
2022-09-23T07:15:24.254Z,10.35
2022-09-23T07:16:26.495Z,10.40
2022-09-23T07:17:30.333Z,10.43
2022-09-23T07:18:37.313Z,10.49
2022-09-23T07:19:40.692Z,10.53
2022-09-23T07:20:42.726Z,10.58
2022-09-23T07:21:45.749Z,10.63
2022-09-23T07:22:49.474Z,10.64
2022-09-23T07:23:52.540Z,10.71
2022-09-23T07:24:56.069Z,10.74
2022-09-23T07:25:59.705Z,10.79
2022-09-23T07:27:03.199Z,10.84
2022-09-23T07:28:05.456Z,10.90
2022-09-23T07:29:08.439Z,10.95
2022-09-23T07:30:20.934Z,11.00
2022-09-23T07:31:38.369Z,11.07
2022-09-23T07:32:48.364Z,11.12
2022-09-23T07:33:57.972Z,11.18
2022-09-23T07:35:00.974Z,11.23
2022-09-23T07:36:08.844Z,11.28
2022-09-23T07:37:11.843Z,11.34
2022-09-23T07:38:13.885Z,11.39
2022-09-23T07:39:17.063Z,11.46
2022-09-23T07:40:19.440Z,11.55
2022-09-23T07:41:22.603Z,11.60
2022-09-23T07:42:24.594Z,11.67
2022-09-23T07:43:30.022Z,11.75
2022-09-23T07:44:33.489Z,11.84
2022-09-23T07:45:38.976Z,11.89
2022-09-23T07:46:42.215Z,11.94
2022-09-23T07:47:44.265Z,11.99
2022-09-23T07:48:48.056Z,12.04
2022-09-23T07:49:51.799Z,12.09
2022-09-23T07:50:54.815Z,12.16
2022-09-23T07:51:57.910Z,12.22
2022-09-23T07:53:01.692Z,12.27
2022-09-23T07:54:07.353Z,12.33
2022-09-23T07:55:09.486Z,12.39
2022-09-23T07:56:12.609Z,12.45
2022-09-23T07:57:15.702Z,12.50
2022-09-23T07:58:17.934Z,12.56
2022-09-23T07:59:21.208Z,12.61
2022-09-23T08:00:23.219Z,12.65
2022-09-23T08:01:27.770Z,12.71
2022-09-23T08:02:31.440Z,12.76
2022-09-23T08:03:33.604Z,12.80
2022-09-23T08:04:36.776Z,12.85
2022-09-23T08:05:40.233Z,12.88
2022-09-23T08:06:44.780Z,12.94
2022-09-23T08:07:48.491Z,12.97
2022-09-23T08:08:53.525Z,13.02
2022-09-23T08:09:56.758Z,13.06
2022-09-23T08:11:02.500Z,13.10
2022-09-23T08:12:06.295Z,13.14
2022-09-23T08:13:08.348Z,13.16
2022-09-23T08:14:13.527Z,13.19
2022-09-23T08:15:17.124Z,13.23
2022-09-23T08:16:20.269Z,13.25
2022-09-23T08:17:22.382Z,13.27
2022-09-23T08:18:26.003Z,13.28
2022-09-23T08:19:29.024Z,13.30
2022-09-23T08:20:47.750Z,13.33
2022-09-23T08:21:54.448Z,13.34
2022-09-23T08:22:56.506Z,13.37
2022-09-23T08:23:59.897Z,13.38
2022-09-23T08:25:03.049Z,13.38
2022-09-23T08:26:15.922Z,13.42
2022-09-23T08:27:22.678Z,13.45
2022-09-23T08:28:24.778Z,13.47
2022-09-23T08:29:27.806Z,13.50
2022-09-23T08:30:29.876Z,13.52
2022-09-23T08:31:32.984Z,13.52
2022-09-23T08:32:35.075Z,13.58
2022-09-23T08:33:38.083Z,13.60
2022-09-23T08:34:41.606Z,13.64
2022-09-23T08:35:43.807Z,13.68
2022-09-23T08:36:47.334Z,13.70
2022-09-23T08:37:50.905Z,13.78
2022-09-23T08:38:54.964Z,13.82
2022-09-23T08:39:58.060Z,13.88
2022-09-23T08:41:08.459Z,13.90
2022-09-23T08:42:18.496Z,14.00
2022-09-23T08:43:27.638Z,14.04
2022-09-23T08:44:38.657Z,14.08
2022-09-23T08:45:42.164Z,14.14
2022-09-23T08:46:50.635Z,14.19
2022-09-23T08:47:56.479Z,14.23
2022-09-23T08:49:01.061Z,14.31
2022-09-23T08:50:08.168Z,14.36
2022-09-23T08:51:15.994Z,14.42
2022-09-23T08:52:24.176Z,14.47
2022-09-23T08:53:31.158Z,14.52
2022-09-23T08:54:34.251Z,14.57
2022-09-23T08:55:43.650Z,14.64
2022-09-23T08:56:49.106Z,14.68
2022-09-23T08:58:24.623Z,14.73
2022-09-23T08:59:36.864Z,14.79
2022-09-23T09:00:43.687Z,14.81
2022-09-23T09:01:49.835Z,14.85
2022-09-23T09:02:54.169Z,14.92
2022-09-23T09:04:00.347Z,14.98
2022-09-23T09:05:07.440Z,15.03
2022-09-23T09:06:15.843Z,15.05
2022-09-23T09:07:36.185Z,15.08
2022-09-23T09:08:43.416Z,15.09
2022-09-23T09:09:51.417Z,15.10
2022-09-23T09:10:58.178Z,15.12
2022-09-23T09:12:05.969Z,15.13
2022-09-23T09:13:23.252Z,15.14
2022-09-23T09:14:29.364Z,15.19
2022-09-23T09:15:35.171Z,15.23
2022-09-23T09:17:06.216Z,15.29
2022-09-23T09:18:19.833Z,15.35
2022-09-23T09:19:41.804Z,15.39
2022-09-23T09:20:57.200Z,15.46
2022-09-23T09:22:01.475Z,15.52
2022-09-23T09:23:21.582Z,15.59
2022-09-23T09:24:31.893Z,15.66
2022-09-23T09:25:44.159Z,15.70
2022-09-23T09:26:47.268Z,15.75
2022-09-23T09:27:49.955Z,15.80
2022-09-23T09:29:02.477Z,15.83
2022-09-23T09:30:20.949Z,15.87
2022-09-23T09:31:29.747Z,15.85
2022-09-23T09:32:48.637Z,15.93
2022-09-23T09:33:58.357Z,15.96
2022-09-23T09:35:07.681Z,15.98
2022-09-23T09:36:24.833Z,15.99
2022-09-23T09:37:35.882Z,16.02
2022-09-23T09:38:38.095Z,16.04
2022-09-23T09:39:42.532Z,16.06
2022-09-23T09:40:47.638Z,16.07
2022-09-23T09:41:52.962Z,16.16
2022-09-23T09:42:55.148Z,16.18
2022-09-23T09:44:00.811Z,16.22
2022-09-23T09:45:12.146Z,16.26
2022-09-23T09:46:29.407Z,16.31
2022-09-23T09:47:47.380Z,16.38
2022-09-23T09:48:56.346Z,16.46
2022-09-23T09:50:06.429Z,16.55
2022-09-23T09:51:19.999Z,16.64
2022-09-23T09:52:26.110Z,16.71
2022-09-23T09:53:30.448Z,16.77
2022-09-23T09:54:33.507Z,16.85
2022-09-23T09:55:38.456Z,16.93
2022-09-23T09:56:42.129Z,16.99
2022-09-23T09:57:49.012Z,17.03
2022-09-23T09:58:54.891Z,17.07
2022-09-23T09:59:57.641Z,17.10
2022-09-23T10:01:01.578Z,17.14
2022-09-23T10:02:23.138Z,17.18
2022-09-23T10:03:34.135Z,17.21
2022-09-23T10:04:40.091Z,17.23
2022-09-23T10:05:49.607Z,17.24
2022-09-23T10:07:07.193Z,17.24
2022-09-23T10:08:34.961Z,17.23
2022-09-23T10:09:38.895Z,17.22
2022-09-23T10:10:54.868Z,17.20
2022-09-23T10:12:11.380Z,17.18
2022-09-23T10:13:16.357Z,17.17
2022-09-23T10:14:20.334Z,17.16
2022-09-23T10:15:44.704Z,17.12
2022-09-23T10:17:05.807Z,17.15
2022-09-23T10:18:19.534Z,17.14
2022-09-23T10:19:27.103Z,17.15
2022-09-23T10:20:38.254Z,16.70
2022-09-23T10:21:43.822Z,17.21
2022-09-23T10:22:46.583Z,17.23
2022-09-23T10:23:52.630Z,17.27
2022-09-23T10:24:58.205Z,17.31
2022-09-23T10:26:03.107Z,17.35
2022-09-23T10:27:09.637Z,17.41
2022-09-23T10:28:41.292Z,17.47
2022-09-23T10:29:51.519Z,17.53
2022-09-23T10:31:04.690Z,17.58
2022-09-23T10:32:26.490Z,17.63
2022-09-23T10:33:28.554Z,17.67
2022-09-23T10:34:34.935Z,17.72
2022-09-23T10:35:57.231Z,17.78
2022-09-23T10:37:04.636Z,17.81
2022-09-23T10:38:10.878Z,17.85
2022-09-23T10:39:33.842Z,17.89
2022-09-23T10:40:57.949Z,17.93
2022-09-23T10:42:24.574Z,17.97
2022-09-23T10:43:54.153Z,18.01
2022-09-23T10:45:26.560Z,18.05
2022-09-23T10:46:41.282Z,18.09
2022-09-23T10:47:53.477Z,18.14
2022-09-23T10:49:13.014Z,18.15
2022-09-23T10:50:31.106Z,18.22
2022-09-23T10:51:41.654Z,18.30
2022-09-23T10:53:04.103Z,18.33
2022-09-23T10:54:14.372Z,18.39
2022-09-23T10:55:32.606Z,18.43
2022-09-23T10:56:40.689Z,18.47
2022-09-23T10:57:59.912Z,18.50
2022-09-23T10:59:43.026Z,18.55
2022-09-23T11:00:53.679Z,18.57
2022-09-23T11:02:11.088Z,18.59
2022-09-23T11:03:50.692Z,18.60
2022-09-23T11:05:11.506Z,18.58
2022-09-23T11:06:18.930Z,18.58
2022-09-23T11:07:27.143Z,18.59
2022-09-23T11:08:41.272Z,18.59
2022-09-23T11:09:58.538Z,18.62
2022-09-23T11:11:18.523Z,18.64
2022-09-23T11:12:35.538Z,18.67
2022-09-23T11:13:59.027Z,18.70
2022-09-23T11:15:19.410Z,18.73
2022-09-23T11:16:32.153Z,18.75
2022-09-23T11:18:09.945Z,18.75
2022-09-23T11:19:27.118Z,18.80
2022-09-23T11:20:41.116Z,18.83
2022-09-23T11:22:14.110Z,18.82
2022-09-23T11:23:50.925Z,18.83
2022-09-23T11:25:23.959Z,18.83
2022-09-23T11:26:41.468Z,18.85
2022-09-23T11:27:58.279Z,18.84
2022-09-23T11:29:22.016Z,18.81
2022-09-23T11:30:32.140Z,18.78
2022-09-23T11:31:43.580Z,18.75
2022-09-23T11:33:14.573Z,18.73
2022-09-23T11:34:26.092Z,18.70
2022-09-23T11:35:34.634Z,18.68
2022-09-23T11:36:42.351Z,18.65
2022-09-23T11:37:49.377Z,18.62
2022-09-23T11:38:54.822Z,18.58
2022-09-23T11:40:03.727Z,18.57
2022-09-23T11:41:19.167Z,18.53
2022-09-23T11:42:25.255Z,18.51
2022-09-23T11:43:33.522Z,18.48
2022-09-23T11:44:43.292Z,18.47
2022-09-23T11:45:51.224Z,18.45
2022-09-23T11:46:59.437Z,18.47
2022-09-23T11:48:05.753Z,18.47
2022-09-23T11:49:14.505Z,18.47
2022-09-23T11:50:25.893Z,18.49
2022-09-23T11:51:32.078Z,18.51
2022-09-23T11:52:39.981Z,18.51
2022-09-23T11:53:47.711Z,18.52
2022-09-23T11:54:54.677Z,18.53
2022-09-23T11:56:03.711Z,18.53
2022-09-23T11:57:13.423Z,18.53
2022-09-23T11:58:25.746Z,18.53
2022-09-23T11:59:40.558Z,18.54
2022-09-23T12:00:53.506Z,18.54
2022-09-23T12:02:15.947Z,18.55
2022-09-23T12:03:39.841Z,18.57
2022-09-23T12:04:57.298Z,18.61
2022-09-23T12:06:05.198Z,18.64
2022-09-23T12:07:15.633Z,18.65
2022-09-23T12:08:26.982Z,18.67
2022-09-23T12:09:56.879Z,18.68
2022-09-23T12:11:07.157Z,18.69
2022-09-23T12:12:21.956Z,18.64
2022-09-23T12:13:34.318Z,18.70
2022-09-23T12:14:46.346Z,18.70
2022-09-23T12:16:02.649Z,18.71
2022-09-23T12:17:24.478Z,18.71
2022-09-23T12:18:44.157Z,18.72
2022-09-23T12:20:16.135Z,18.73
2022-09-23T12:21:51.014Z,18.74
2022-09-23T12:23:03.326Z,18.74
2022-09-23T12:24:27.743Z,18.74
2022-09-23T12:25:40.381Z,18.74
2022-09-23T12:26:45.426Z,18.74
2022-09-23T12:27:51.845Z,18.74
2022-09-23T12:29:01.163Z,18.74
2022-09-23T12:30:08.061Z,18.71
2022-09-23T12:31:16.452Z,18.72
2022-09-23T12:32:19.254Z,18.72
2022-09-23T12:33:26.555Z,18.72
2022-09-23T12:34:40.890Z,18.72
2022-09-23T12:35:46.668Z,18.73
2022-09-23T12:36:50.029Z,18.72
2022-09-23T12:37:53.827Z,18.73
2022-09-23T12:39:02.877Z,18.72
2022-09-23T12:40:19.153Z,18.73
2022-09-23T12:41:27.319Z,18.70
2022-09-23T12:42:31.396Z,18.74
2022-09-23T12:43:35.570Z,18.77
2022-09-23T12:44:40.557Z,18.79
2022-09-23T12:45:42.690Z,18.80
2022-09-23T12:46:47.773Z,18.82
2022-09-23T12:47:50.101Z,18.83
2022-09-23T12:49:01.526Z,18.84
2022-09-23T12:50:49.383Z,18.84
2022-09-23T12:52:15.466Z,18.85
2022-09-23T12:53:50.944Z,18.87
2022-09-23T12:54:57.844Z,18.87
2022-09-23T12:56:00.744Z,18.90
2022-09-23T12:57:11.433Z,18.92
2022-09-23T12:58:28.181Z,18.95
2022-09-23T12:59:33.843Z,18.97
2022-09-23T13:00:40.332Z,19.00
2022-09-23T13:01:43.105Z,19.02
2022-09-23T13:03:14.455Z,19.06
2022-09-23T13:04:52.281Z,19.07
2022-09-23T13:06:20.835Z,19.10
2022-09-23T13:07:28.139Z,19.14
2022-09-23T13:08:33.776Z,19.16
2022-09-23T13:09:41.195Z,19.16
2022-09-23T13:10:49.491Z,19.18
2022-09-23T13:11:53.509Z,19.19
2022-09-23T13:12:57.904Z,19.21
2022-09-23T13:14:04.258Z,19.23
2022-09-23T13:15:18.099Z,19.24
2022-09-23T13:16:25.296Z,19.23
2022-09-23T13:17:33.427Z,19.23
2022-09-23T13:18:59.062Z,19.23
2022-09-23T13:20:04.600Z,19.23
2022-09-23T13:21:18.189Z,19.22
2022-09-23T13:22:42.639Z,19.22
2022-09-23T13:24:18.300Z,19.20
2022-09-23T13:25:25.159Z,19.16
2022-09-23T13:26:33.401Z,19.14
2022-09-23T13:27:36.714Z,19.13
2022-09-23T13:28:45.593Z,19.11
2022-09-23T13:29:53.696Z,19.07
2022-09-23T13:30:58.550Z,19.09
2022-09-23T13:32:03.015Z,19.07
2022-09-23T13:33:11.778Z,19.06
2022-09-23T13:34:18.605Z,19.02
2022-09-23T13:35:31.748Z,19.03
2022-09-23T13:36:43.983Z,19.03
2022-09-23T13:37:48.851Z,19.04
2022-09-23T13:38:51.008Z,19.04
2022-09-23T13:39:54.068Z,19.07
2022-09-23T13:41:01.146Z,19.06
2022-09-23T13:42:04.728Z,19.08
2022-09-23T13:43:17.456Z,19.07
2022-09-23T13:44:22.337Z,19.07
2022-09-23T13:45:25.931Z,19.08
2022-09-23T13:46:32.493Z,19.07
2022-09-23T13:47:36.392Z,19.08
2022-09-23T13:48:39.930Z,19.08
2022-09-23T13:49:43.482Z,19.08
2022-09-23T13:50:50.039Z,19.06
2022-09-23T13:51:54.185Z,19.05
2022-09-23T13:52:59.172Z,19.03
2022-09-23T13:54:05.157Z,19.01
2022-09-23T13:55:30.038Z,19.00
2022-09-23T13:56:36.568Z,18.98
2022-09-23T13:57:40.119Z,18.97
2022-09-23T13:58:43.661Z,18.96
2022-09-23T13:59:45.754Z,18.96
2022-09-23T14:00:50.217Z,18.92
2022-09-23T14:02:04.118Z,18.94
2022-09-23T14:03:28.123Z,18.94
2022-09-23T14:04:33.358Z,18.93
2022-09-23T14:05:38.767Z,18.92
2022-09-23T14:06:42.555Z,18.92
2022-09-23T14:07:45.149Z,18.92
2022-09-23T14:08:50.255Z,18.91
2022-09-23T14:09:56.584Z,18.90
2022-09-23T14:10:59.550Z,18.89
2022-09-23T14:12:06.172Z,18.88
2022-09-23T14:13:15.715Z,18.87
2022-09-23T14:14:19.477Z,18.86
2022-09-23T14:15:22.627Z,18.85
2022-09-23T14:16:28.108Z,18.84
2022-09-23T14:17:30.508Z,18.82
2022-09-23T14:18:38.231Z,18.80
2022-09-23T14:19:43.855Z,18.81
2022-09-23T14:20:50.259Z,18.79
2022-09-23T14:21:54.928Z,18.79
2022-09-23T14:23:07.528Z,18.77
2022-09-23T14:24:16.445Z,18.76
2022-09-23T14:25:18.962Z,18.73
2022-09-23T14:26:24.452Z,18.74
2022-09-23T14:27:28.943Z,18.73
2022-09-23T14:28:32.131Z,18.72
2022-09-23T14:29:36.347Z,18.71
2022-09-23T14:30:39.691Z,18.71
2022-09-23T14:31:44.095Z,18.70
2022-09-23T14:32:47.905Z,18.68
2022-09-23T14:33:51.216Z,18.66
2022-09-23T14:35:05.399Z,18.64
2022-09-23T14:36:33.979Z,18.63
2022-09-23T14:38:01.219Z,18.60
2022-09-23T14:39:04.606Z,18.54
2022-09-23T14:40:13.575Z,18.41
2022-09-23T14:41:22.133Z,18.39
2022-09-23T14:42:24.246Z,18.49
2022-09-23T14:43:29.207Z,18.47
2022-09-23T14:44:35.213Z,18.44
2022-09-23T14:45:39.679Z,18.43
2022-09-23T14:46:56.573Z,18.42
2022-09-23T14:48:01.338Z,18.41
2022-09-23T14:49:07.675Z,18.40